AKDT,Max TemperatureF,Mean TemperatureF,Min TemperatureF,Max Dew PointF,MeanDew PointF,Min DewpointF,Max Humidity, Mean Humidity, Min Humidity, Max Sea Level PressureIn, Mean Sea Level PressureIn, Min Sea Level PressureIn, Max VisibilityMiles, Mean VisibilityMiles, Min VisibilityMiles, Max Wind SpeedMPH, Mean Wind SpeedMPH, Max Gust SpeedMPH,PrecipitationIn, CloudCover, Events, WindDirDegrees
2010-10-1,55,46,37,48,44,36,100,91,77,29.78,29.64,29.56,10,5,0,16,2,21,0.00,8,,107
2010-10-2,50,47,44,45,41,37,93,80,62,29.98,29.90,29.76,10,10,5,17,12,23,0.00,7,,130
2010-10-3,48,45,42,43,42,39,93,88,71,29.93,29.80,29.75,10,10,7,13,5,21,0.00,6,,353
2010-10-4,51,46,42,43,39,34,93,75,58,30.07,30.01,29.92,10,10,10,16,7,20,0.00,5,,123
2010-10-5,53,46,39,46,43,37,93,83,71,29.79,29.49,29.30,10,10,7,24,10,39,0.00,8,,159
2010-10-6,51,48,44,45,41,39,93,79,66,29.86,29.77,29.67,10,10,9,14,8,21,0.00,8,,135
2010-10-7,48,40,33,41,37,30,100,85,71,29.83,29.64,29.46,10,9,2,8,3,,0.00,4,,71
2010-10-8,53,48,44,45,40,39,93,79,58,29.84,29.75,29.54,10,10,9,15,8,20,0.00,7,,131
2010-10-9,51,46,42,46,42,36,93,85,71,29.47,29.24,29.03,10,10,5,24,7,34,0.00,8,,47
2010-10-10,50,47,44,45,42,41,93,86,76,29.78,29.44,29.01,10,10,5,12,6,16,0.00,8,,146
2010-10-11,46,44,42,45,42,39,93,88,76,29.80,29.77,29.73,10,10,9,12,6,,0.00,8,,358
2010-10-12,50,46,42,43,40,37,87,82,62,29.76,29.43,29.16,10,9,3,37,11,51,0.00,8,,82
2010-10-13,51,48,44,43,40,37,87,78,58,29.88,29.77,29.47,10,10,10,16,10,22,0.00,5,,134
2010-10-14,48,44,41,43,40,37,93,87,81,29.81,29.54,29.30,10,9,2,12,6,,0.00,8,,98
2010-10-15,46,44,41,41,39,37,93,83,76,29.94,29.92,29.84,10,10,5,15,7,20,0.00,8,,143
2010-10-16,46,42,39,43,39,37,93,89,76,29.82,29.78,29.73,10,9,1,12,6,,0.00,8,,20
2010-10-17,53,48,42,45,41,39,93,84,67,29.79,29.55,29.27,10,10,8,23,7,32,0.00,8,,344
2010-10-18,53,48,44,46,41,37,87,80,76,29.79,29.55,29.28,10,10,8,21,14,29,0.00,7,,136
2010-10-19,48,44,39,39,39,37,93,81,71,29.97,29.94,29.88,10,10,7,14,6,18,0.00,7,,142
2010-10-20,46,40,35,41,38,34,100,90,76,29.94,29.85,29.77,10,9,0,7,2,,0.00,8,,329
2010-10-21,46,40,33,39,36,32,100,87,66,29.95,29.90,29.84,10,10,9,7,2,,0.00,6,,322
2010-10-22,44,35,26,37,30,25,100,86,61,29.77,29.65,29.60,10,10,10,5,1,,0.00,3,,348
2010-10-23,42,40,39,41,39,36,93,91,87,29.66,29.56,29.39,10,10,7,7,4,,0.00,8,,344
2010-10-24,55,44,32,39,32,27,100,69,33,29.33,29.21,29.16,10,8,0,13,3,18,0.00,3,,18
2010-10-25,48,40,33,39,36,28,93,83,66,29.50,29.42,29.33,10,10,3,6,0,,0.00,8,,330
2010-10-26,48,40,33,41,37,30,93,86,66,29.90,29.73,29.57,10,10,2,5,1,,0.00,8,,3
2010-10-27,46,38,30,39,34,28,100,89,71,30.19,30.13,30.00,10,10,10,7,1,,0.00,7,,309
2010-10-28,44,40,37,36,34,28,93,77,53,30.11,29.87,29.61,10,10,10,22,6,31,0.00,7,,134
2010-10-29,46,42,39,39,37,34,87,79,66,29.45,29.22,29.07,10,9,6,32,20,44,0.00,8,,146
2010-10-30,41,36,30,37,33,28,100,90,81,29.40,29.31,29.25,10,8,2,10,1,,0.00,6,,133
2010-10-31,48,44,41,36,30,25,81,58,40,29.45,29.33,29.01,10,10,10,22,14,31,0.00,7,,124